createdAt,value
2022-10-18T00:03:23.011Z,101949.63
2022-10-18T00:08:24.498Z,101953.69
2022-10-18T00:13:25.913Z,101952.25
2022-10-18T00:18:27.565Z,101958.53
2022-10-18T00:23:30.176Z,101948.03
2022-10-18T00:28:32.041Z,101947.19
2022-10-18T00:33:33.428Z,101951.47
2022-10-18T00:38:34.791Z,101947.19
2022-10-18T00:43:56.245Z,101943.34
2022-10-18T00:48:59.481Z,101934.00
2022-10-18T00:54:00.826Z,101919.84
2022-10-18T00:59:02.404Z,101921.03
2022-10-18T01:04:03.778Z,101910.72
2022-10-18T01:09:14.203Z,101922.47
2022-10-18T01:14:34.379Z,101914.97
2022-10-18T01:19:47.805Z,101917.22
2022-10-18T01:30:19.665Z,101916.13
2022-10-18T01:35:26.283Z,101925.44
2022-10-18T01:40:28.625Z,101919.94
2022-10-18T01:45:31.663Z,101910.44
2022-10-18T01:50:34.196Z,101905.41
2022-10-18T01:55:42.519Z,101898.91
2022-10-18T02:00:44.319Z,101905.22
2022-10-18T02:05:51.462Z,101909.84
2022-10-18T02:11:09.266Z,101904.00
2022-10-18T02:16:14.119Z,101897.94
2022-10-18T02:21:17.361Z,101901.38
2022-10-18T02:26:18.685Z,101901.13
2022-10-18T02:31:27.160Z,101883.28
2022-10-18T02:36:33.476Z,101888.19
2022-10-18T02:41:34.819Z,101904.19
2022-10-18T02:46:36.394Z,101903.59
2022-10-18T02:51:37.704Z,101889.19
2022-10-18T02:56:39.053Z,101883.91
2022-10-18T03:01:40.614Z,101878.84
2022-10-18T03:06:42.063Z,101898.91
2022-10-18T03:11:43.357Z,101899.94
2022-10-18T03:16:44.672Z,101905.22
2022-10-18T03:21:46.007Z,101912.47
2022-10-18T03:26:47.329Z,101912.06
2022-10-18T03:31:48.745Z,101914.91
2022-10-18T03:36:50.059Z,101915.75
2022-10-18T03:41:51.417Z,101915.13
2022-10-18T03:46:52.781Z,101915.34
2022-10-18T03:51:54.108Z,101919.94
2022-10-18T03:56:55.443Z,101921.59
2022-10-18T04:01:56.922Z,101920.97
2022-10-18T04:06:58.286Z,101923.38
2022-10-18T04:11:59.588Z,101919.28
2022-10-18T04:17:00.923Z,101930.03
2022-10-18T04:22:02.244Z,101924.69
2022-10-18T04:27:04.607Z,101932.16
2022-10-18T04:32:06.026Z,101930.78
2022-10-18T04:37:07.351Z,101917.78
2022-10-18T04:42:08.660Z,101934.44
2022-10-18T04:47:10.051Z,101936.19
2022-10-18T04:52:11.519Z,101934.38
2022-10-18T04:57:12.863Z,101940.28
2022-10-18T05:02:14.209Z,101932.75
2022-10-18T05:07:15.588Z,101932.13
2022-10-18T05:12:16.961Z,101936.59
2022-10-18T05:17:18.312Z,101941.81
2022-10-18T05:22:19.661Z,101926.81
2022-10-18T05:27:21.036Z,101936.38
2022-10-18T05:32:22.414Z,101941.63
2022-10-18T05:37:27.568Z,101957.19
2022-10-18T05:42:30.140Z,101950.72
2022-10-18T05:47:31.768Z,101953.72
2022-10-18T05:52:33.518Z,101950.47
2022-10-18T05:57:35.450Z,101955.94
2022-10-18T06:02:36.896Z,101960.41
2022-10-18T06:07:38.314Z,101964.03
2022-10-18T06:12:39.666Z,101985.09
2022-10-18T06:17:41.010Z,101988.97
2022-10-18T06:22:42.456Z,101981.13
2022-10-18T06:27:43.774Z,101988.16
2022-10-18T06:32:45.117Z,101998.13
2022-10-18T06:37:46.472Z,101993.06
2022-10-18T06:42:59.979Z,101992.91
2022-10-18T06:48:02.062Z,101996.53
2022-10-18T06:53:06.047Z,102003.03
2022-10-18T06:58:07.693Z,102003.03
2022-10-18T07:03:09.061Z,102003.47
2022-10-18T07:08:10.432Z,102016.44
2022-10-18T07:13:31.465Z,102012.81
2022-10-18T07:18:37.311Z,102005.34
2022-10-18T07:23:39.762Z,102015.69
2022-10-18T07:28:41.921Z,102022.69
2022-10-18T07:33:43.270Z,102017.28
2022-10-18T07:38:44.836Z,102025.66
2022-10-18T07:43:47.760Z,102042.50
2022-10-18T07:48:49.507Z,102051.38
2022-10-18T07:53:50.862Z,102066.66
2022-10-18T07:58:53.255Z,102060.75
2022-10-18T08:03:54.678Z,102068.00
2022-10-18T08:08:55.988Z,102076.00
2022-10-18T08:13:57.389Z,102080.47
2022-10-18T08:18:58.850Z,102081.97
2022-10-18T08:24:00.229Z,102080.19
2022-10-18T08:29:17.935Z,102080.03
2022-10-18T08:34:22.887Z,102082.53
2022-10-18T08:39:24.212Z,102090.91
2022-10-18T08:44:30.263Z,102091.72
2022-10-18T08:49:31.610Z,102093.16
2022-10-18T08:54:59.523Z,102087.16
2022-10-18T09:00:01.992Z,102095.78
2022-10-18T09:05:09.189Z,102093.69
2022-10-18T09:10:27.191Z,102104.75
2022-10-18T09:15:31.572Z,102102.50
2022-10-18T09:20:37.672Z,102106.81
2022-10-18T09:25:46.140Z,102116.91
2022-10-18T09:30:47.435Z,102127.41
2022-10-18T09:35:52.437Z,102116.38
2022-10-18T09:41:00.479Z,102124.31
2022-10-18T09:46:03.779Z,102123.41
2022-10-18T09:51:11.295Z,102130.38
2022-10-18T09:56:18.555Z,102125.94
2022-10-18T10:01:22.340Z,102132.44
2022-10-18T10:06:30.970Z,102129.22
2022-10-18T10:11:32.300Z,102134.50
2022-10-18T10:16:33.600Z,102134.25
2022-10-18T10:21:39.596Z,102136.59
2022-10-18T10:26:40.924Z,102138.97
2022-10-18T10:31:42.236Z,102148.34
2022-10-18T10:36:47.568Z,102146.22
2022-10-18T10:41:53.256Z,102137.91
2022-10-18T10:46:55.018Z,102144.50
2022-10-18T10:52:08.967Z,102154.06
2022-10-18T10:57:28.771Z,102149.81
2022-10-18T11:02:32.273Z,102148.53
2022-10-18T11:07:37.256Z,102156.56
2022-10-18T11:12:38.576Z,102151.09
2022-10-18T11:17:43.950Z,102150.88
2022-10-18T11:22:45.350Z,102157.69
2022-10-18T11:27:52.939Z,102146.75
2022-10-18T11:33:02.975Z,102139.94
2022-10-18T11:38:23.060Z,102133.06
2022-10-18T11:44:02.159Z,102133.88
2022-10-18T11:49:26.851Z,102141.41
2022-10-18T11:59:56.568Z,102124.63
2022-10-18T12:10:31.590Z,102121.09
2022-10-18T12:15:43.587Z,102123.75
2022-10-18T12:20:55.337Z,102128.66
2022-10-18T12:26:00.996Z,102131.72
2022-10-18T12:31:02.974Z,102123.97
2022-10-18T12:36:22.696Z,102120.06
2022-10-18T12:41:32.240Z,102132.84
2022-10-18T12:46:48.650Z,102125.56
2022-10-18T12:52:00.903Z,102126.22
2022-10-18T12:57:03.671Z,102130.81
2022-10-18T13:02:05.172Z,102121.13
2022-10-18T13:07:18.999Z,102120.44
2022-10-18T13:12:20.379Z,102118.66
2022-10-18T13:17:44.826Z,102118.19
2022-10-18T13:22:46.128Z,102115.06
2022-10-18T13:27:50.515Z,102107.69
2022-10-18T13:32:58.196Z,102099.38
2022-10-18T13:37:59.984Z,102107.22
2022-10-18T13:43:27.327Z,102108.06
2022-10-18T13:48:31.457Z,102114.81
2022-10-18T13:54:08.353Z,102124.09
2022-10-18T13:59:26.966Z,102114.38
2022-10-18T14:04:28.284Z,102120.06
2022-10-18T14:09:43.750Z,102126.06
2022-10-18T14:14:49.013Z,102122.19
2022-10-18T14:19:59.745Z,102123.97
2022-10-18T14:25:01.042Z,102127.00
2022-10-18T14:30:08.355Z,102129.22
2022-10-18T14:35:38.918Z,102132.69
2022-10-18T14:40:40.677Z,102123.97
2022-10-18T14:45:42.669Z,102133.38
2022-10-18T14:50:45.930Z,102124.91
2022-10-18T14:55:57.684Z,102124.53
2022-10-18T15:00:59.447Z,102126.47
2022-10-18T15:06:03.026Z,102127.91
2022-10-18T15:11:04.679Z,102125.28
2022-10-18T15:16:06.090Z,102125.13
2022-10-18T15:21:16.600Z,102121.28
2022-10-18T15:26:29.521Z,102131.28
2022-10-18T15:31:35.427Z,102124.78
2022-10-18T15:36:37.081Z,102124.38
2022-10-18T15:41:44.794Z,102121.75
2022-10-18T15:46:47.603Z,102119.47
2022-10-18T15:51:49.467Z,102112.97
2022-10-18T15:56:50.777Z,102122.69
2022-10-18T16:01:52.371Z,102125.09
2022-10-18T16:06:55.423Z,102126.31
2022-10-18T16:11:58.199Z,102126.69
2022-10-18T16:17:01.716Z,102123.81
2022-10-18T16:22:06.580Z,102127.38
2022-10-18T16:27:09.946Z,102131.72
2022-10-18T16:32:11.234Z,102131.38
2022-10-18T16:37:12.526Z,102137.19
2022-10-18T16:42:13.816Z,102144.09
2022-10-18T16:47:15.123Z,102160.84
2022-10-18T16:52:16.465Z,102159.41
2022-10-18T16:57:17.790Z,102165.38
2022-10-18T17:02:19.102Z,102170.81
2022-10-18T17:07:23.480Z,102181.56
2022-10-18T17:12:24.879Z,102182.91
2022-10-18T17:17:26.237Z,102188.81
2022-10-18T17:22:27.530Z,102190.19
2022-10-18T17:27:28.828Z,102202.88
2022-10-18T17:32:30.155Z,102203.19
2022-10-18T17:37:31.825Z,102212.56
2022-10-18T17:42:33.791Z,102215.56
2022-10-18T17:47:35.368Z,102211.88
2022-10-18T17:52:40.592Z,102215.75
2022-10-18T17:57:42.480Z,102216.13
2022-10-18T18:02:44.201Z,102217.53
2022-10-18T18:07:46.699Z,102220.50
2022-10-18T18:12:48.100Z,102218.88
2022-10-18T18:17:57.661Z,102219.59
2022-10-18T18:22:59.503Z,102224.19
2022-10-18T18:28:05.169Z,102231.03
2022-10-18T18:33:08.748Z,102238.16
2022-10-18T18:38:10.046Z,102233.00
2022-10-18T18:43:22.657Z,102232.75
2022-10-18T18:48:25.977Z,102236.78
2022-10-18T18:53:29.546Z,102239.44
2022-10-18T18:58:31.874Z,102237.88
2022-10-18T19:03:33.506Z,102233.00
2022-10-18T19:08:36.702Z,102229.75
2022-10-18T19:13:38.083Z,102232.88
2022-10-18T19:18:39.444Z,102231.16
2022-10-18T19:23:40.746Z,102226.94
2022-10-18T19:28:42.087Z,102222.06
2022-10-18T19:33:48.285Z,102224.03
2022-10-18T19:38:57.138Z,102222.25
2022-10-18T19:43:58.708Z,102218.00
2022-10-18T19:49:00.037Z,102238.84
2022-10-18T19:54:01.667Z,102227.53
2022-10-18T19:59:03.250Z,102244.56
2022-10-18T20:04:04.860Z,102243.91
2022-10-18T20:09:06.669Z,102252.28
2022-10-18T20:14:09.685Z,102247.34
2022-10-18T20:19:11.651Z,102241.13
2022-10-18T20:24:12.963Z,102245.22
2022-10-18T20:29:14.406Z,102235.56
2022-10-18T20:34:15.839Z,102241.28
2022-10-18T20:39:17.144Z,102248.47
2022-10-18T20:44:20.751Z,102253.38
2022-10-18T20:49:22.100Z,102257.63
2022-10-18T20:54:23.471Z,102260.38
2022-10-18T20:59:24.871Z,102257.94
2022-10-18T21:04:26.202Z,102254.84
2022-10-18T21:09:27.533Z,102257.19
2022-10-18T21:14:28.971Z,102250.31
2022-10-18T21:19:30.284Z,102259.13
2022-10-18T21:24:31.680Z,102257.50
2022-10-18T21:29:33.000Z,102261.25
2022-10-18T21:34:34.303Z,102264.69
2022-10-18T21:39:35.597Z,102260.16
2022-10-18T21:44:37.723Z,102255.88
2022-10-18T21:49:39.014Z,102256.19
2022-10-18T21:54:40.315Z,102253.88
2022-10-18T21:59:41.619Z,102252.28
2022-10-18T22:04:42.927Z,102256.53
2022-10-18T22:09:44.222Z,102252.78
2022-10-18T22:14:45.559Z,102241.13
2022-10-18T22:19:47.287Z,102242.13
2022-10-18T22:24:48.906Z,102240.47
2022-10-18T22:29:50.214Z,102226.06
2022-10-18T22:34:51.521Z,102229.66
2022-10-18T22:39:52.809Z,102232.28
2022-10-18T22:44:54.109Z,102235.91
2022-10-18T22:49:55.422Z,102236.06
2022-10-18T22:54:56.725Z,102237.03
2022-10-18T22:59:58.046Z,102227.38
2022-10-18T23:04:59.405Z,102230.63
2022-10-18T23:10:00.707Z,102219.81
2022-10-18T23:15:02.008Z,102228.69
2022-10-18T23:20:03.559Z,102224.88
2022-10-18T23:25:05.075Z,102216.06
2022-10-18T23:30:06.684Z,102217.88
2022-10-18T23:35:08.211Z,102229.59
2022-10-18T23:40:09.868Z,102224.00
2022-10-18T23:45:11.231Z,102225.16
2022-10-18T23:50:12.526Z,102226.78
2022-10-18T23:55:13.887Z,102229.25
